Time;durP1;ratioP1;P1;durP2;ratioP2;P2;SDS_P1;SDS_P2;PMS_P1;PMS_P2;Temp;Humidity;BMP_temperature;BMP_pressure;BME280_temperature;BME280_humidity;BME280_pressure;Samples;Min_cycle;Max_cycle;Signal;HPM_P1;HPM_P2
2022/02/21 00:00:27;;;;;;;4.13;1.67;;;10.30;99.90;;;;;;5074010;28;20463;-71
2022/02/21 00:02:54;;;;;;;11.93;1.50;;;10.20;99.90;;;;;;5078431;28;20289;-71
2022/02/21 00:05:21;;;;;;;6.43;2.70;;;10.20;99.90;;;;;;5076273;28;20847;-71
2022/02/21 00:07:47;;;;;;;3.70;1.70;;;10.10;99.90;;;;;;5076439;28;20516;-71
2022/02/21 00:10:15;;;;;;;4.30;1.90;;;10.10;99.90;;;;;;5077114;28;20460;-72
2022/02/21 00:12:41;;;;;;;5.40;1.70;;;10.00;99.90;;;;;;5076858;28;20465;-72
2022/02/21 00:15:08;;;;;;;3.50;1.47;;;10.00;99.90;;;;;;5080075;28;20548;-72
2022/02/21 00:17:34;;;;;;;4.67;1.30;;;10.00;99.90;;;;;;5079414;28;20432;-72
2022/02/21 00:20:00;;;;;;;3.40;1.43;;;10.00;99.90;;;;;;5080694;28;20458;-72
2022/02/21 00:22:26;;;;;;;2.37;1.20;;;9.90;99.90;;;;;;5081323;28;20504;-73
2022/02/21 00:24:53;;;;;;;2.47;1.20;;;9.90;99.90;;;;;;5079447;28;20191;-72
2022/02/21 00:27:19;;;;;;;4.80;1.90;;;9.80;99.90;;;;;;5080580;28;20441;-73
2022/02/21 00:29:46;;;;;;;3.03;1.40;;;9.80;99.90;;;;;;5079967;28;20452;-71
2022/02/21 00:32:14;;;;;;;3.77;1.40;;;9.80;99.90;;;;;;5081283;28;20512;-74
2022/02/21 00:34:39;;;;;;;4.63;1.70;;;9.80;99.90;;;;;;5080553;28;20469;-74
2022/02/21 00:37:05;;;;;;;1.90;1.30;;;9.70;99.90;;;;;;5077929;28;20499;-72
2022/02/21 00:39:31;;;;;;;4.87;1.90;;;9.80;99.90;;;;;;5081556;28;20210;-74
2022/02/21 00:41:57;;;;;;;2.03;1.77;;;9.80;99.90;;;;;;5079608;28;22049;-73
2022/02/21 00:44:22;;;;;;;3.57;2.57;;;9.80;99.90;;;;;;5083461;28;20221;-72
2022/02/21 00:46:48;;;;;;;2.83;2.03;;;9.80;99.90;;;;;;5074466;28;20191;-71
2022/02/21 00:49:14;;;;;;;3.37;1.83;;;9.70;99.90;;;;;;5080357;28;20200;-71
2022/02/21 00:51:39;;;;;;;8.47;2.00;;;9.70;99.90;;;;;;5080555;28;20210;-72
2022/02/21 00:54:05;;;;;;;4.67;1.90;;;9.70;99.90;;;;;;5082709;28;20181;-72
2022/02/21 00:56:30;;;;;;;2.37;1.60;;;9.70;99.90;;;;;;5078308;28;20272;-72
2022/02/21 00:58:56;;;;;;;6.40;1.93;;;9.70;99.90;;;;;;5082035;28;20720;-72
2022/02/21 01:01:22;;;;;;;3.57;1.80;;;9.60;99.90;;;;;;5080261;28;20244;-72
2022/02/21 01:03:48;;;;;;;5.57;1.63;;;9.60;99.90;;;;;;5069589;28;20299;-72
2022/02/21 01:06:17;;;;;;;2.83;1.60;;;9.60;99.90;;;;;;5081118;28;20476;-73
2022/02/21 01:08:44;;;;;;;5.50;1.87;;;9.60;99.90;;;;;;5079218;28;20200;-72
2022/02/21 01:11:11;;;;;;;4.50;1.80;;;9.60;99.90;;;;;;5077061;28;20540;-71
2022/02/21 01:13:37;;;;;;;4.30;1.53;;;9.70;99.90;;;;;;5078850;28;21091;-71
2022/02/21 01:16:03;;;;;;;6.20;1.97;;;9.80;99.90;;;;;;5075975;28;20441;-71
2022/02/21 01:18:29;;;;;;;3.90;1.43;;;9.90;99.90;;;;;;5077770;28;20179;-72
2022/02/21 01:20:55;;;;;;;3.70;1.80;;;9.90;99.90;;;;;;5063227;28;20456;-71
2022/02/21 01:23:20;;;;;;;9.47;2.10;;;9.90;99.90;;;;;;5078294;28;20706;-72
2022/02/21 01:25:46;;;;;;;2.03;1.73;;;10.00;99.90;;;;;;5077892;28;20182;-72
2022/02/21 01:28:12;;;;;;;9.27;2.50;;;10.10;99.90;;;;;;5079979;28;20293;-72
2022/02/21 01:30:37;;;;;;;7.00;2.83;;;10.00;99.90;;;;;;5078131;28;21757;-72
2022/02/21 01:33:03;;;;;;;4.37;1.80;;;10.00;99.90;;;;;;5077829;28;20216;-71
2022/02/21 01:35:29;;;;;;;4.33;2.23;;;10.00;99.90;;;;;;5077771;28;20791;-72
2022/02/21 01:37:54;;;;;;;4.40;1.90;;;10.10;99.90;;;;;;5080483;28;20193;-72
2022/02/21 01:40:21;;;;;;;6.90;2.23;;;10.10;99.90;;;;;;5078485;28;20289;-71
2022/02/21 01:42:47;;;;;;;4.37;1.70;;;10.10;99.90;;;;;;5077063;28;20667;-71
2022/02/21 01:45:13;;;;;;;9.60;1.70;;;10.10;99.90;;;;;;5078051;28;20435;-71
2022/02/21 01:47:38;;;;;;;2.73;1.70;;;10.20;99.90;;;;;;5078536;28;20194;-71
2022/02/21 01:50:04;;;;;;;10.17;3.07;;;10.30;99.90;;;;;;5078294;28;20206;-71
2022/02/21 01:52:31;;;;;;;4.93;2.00;;;10.30;99.90;;;;;;5080921;28;20187;-71
2022/02/21 01:54:57;;;;;;;2.70;1.73;;;10.30;99.90;;;;;;5077885;28;20510;-72
2022/02/21 01:57:25;;;;;;;3.83;1.70;;;10.30;99.90;;;;;;5078379;28;21201;-71
2022/02/21 01:59:51;;;;;;;3.40;1.60;;;10.40;99.90;;;;;;5070658;28;20556;-71
2022/02/21 02:02:17;;;;;;;5.83;2.00;;;10.40;99.90;;;;;;5076643;28;20487;-71
2022/02/21 02:04:43;;;;;;;3.40;1.50;;;10.40;99.90;;;;;;5075654;28;20461;-71
2022/02/21 02:07:11;;;;;;;3.70;1.57;;;10.40;99.90;;;;;;5075538;28;20186;-71
2022/02/21 02:09:37;;;;;;;2.57;1.70;;;10.50;99.90;;;;;;5076658;28;20298;-71
2022/02/21 02:12:06;;;;;;;17.57;1.60;;;10.50;99.90;;;;;;5077656;28;20430;-71
2022/02/21 02:14:37;;;;;;;3.03;1.33;;;10.50;99.90;;;;;;5075840;28;20499;-71
2022/02/21 02:17:09;;;;;;;4.90;1.53;;;10.60;99.90;;;;;;5074482;28;20470;-71
2022/02/21 02:19:36;;;;;;;4.70;1.57;;;10.60;99.90;;;;;;5079363;28;20453;-71
2022/02/21 02:22:13;;;;;;;2.43;1.30;;;10.60;99.90;;;;;;5081230;28;20472;-71
2022/02/21 02:24:40;;;;;;;2.50;1.57;;;10.60;99.90;;;;;;5082076;28;20436;-71
2022/02/21 02:27:08;;;;;;;1.60;1.40;;;10.50;99.90;;;;;;5080808;28;20859;-71
2022/02/21 02:29:36;;;;;;;3.67;1.50;;;10.40;99.90;;;;;;5077220;28;20706;-71
2022/02/21 02:32:02;;;;;;;4.80;1.53;;;10.40;99.90;;;;;;5076825;28;20790;-71
2022/02/21 02:34:28;;;;;;;3.40;1.70;;;10.40;99.90;;;;;;5060415;28;20437;-69
2022/02/21 02:36:54;;;;;;;2.90;1.50;;;10.30;99.90;;;;;;5076901;28;20467;-73
2022/02/21 02:39:19;;;;;;;3.97;1.67;;;10.20;99.90;;;;;;5077734;28;20566;-73
2022/02/21 02:41:45;;;;;;;3.30;1.40;;;10.10;99.90;;;;;;5075976;28;20191;-72
2022/02/21 02:44:11;;;;;;;4.40;1.60;;;10.00;99.90;;;;;;5075244;28;20222;-72
2022/02/21 02:46:37;;;;;;;8.90;1.50;;;10.00;99.90;;;;;;5074149;28;20442;-72
2022/02/21 02:49:03;;;;;;;4.10;2.43;;;9.90;99.90;;;;;;5079794;28;20190;-73
2022/02/21 02:51:29;;;;;;;7.07;2.10;;;9.80;99.90;;;;;;5079671;28;20178;-73
2022/02/21 02:53:55;;;;;;;6.07;1.60;;;9.70;99.90;;;;;;5078459;28;21092;-73
2022/02/21 02:56:20;;;;;;;1.80;1.47;;;9.50;99.90;;;;;;5077207;28;20573;-72
2022/02/21 02:58:46;;;;;;;3.30;1.53;;;8.70;99.90;;;;;;5075159;28;20187;-72
2022/02/21 03:01:11;;;;;;;1.80;1.10;;;7.00;99.90;;;;;;5077510;28;20218;-72
2022/02/21 03:03:38;;;;;;;4.07;1.70;;;6.40;99.90;;;;;;5075320;28;20300;-72
2022/02/21 03:06:04;;;;;;;4.43;1.10;;;6.20;99.90;;;;;;5076778;28;20187;-72
2022/02/21 03:08:29;;;;;;;6.90;1.87;;;6.20;99.90;;;;;;5073346;28;20459;-72
2022/02/21 03:10:55;;;;;;;2.30;1.47;;;6.30;99.90;;;;;;5079403;28;20460;-73
2022/02/21 03:13:20;;;;;;;1.60;1.20;;;6.40;99.90;;;;;;5075441;28;20320;-72
2022/02/21 03:15:46;;;;;;;2.80;1.70;;;6.40;99.90;;;;;;5075165;28;20191;-72
2022/02/21 03:18:12;;;;;;;6.43;1.40;;;6.40;99.90;;;;;;5074777;28;20192;-73
2022/02/21 03:20:37;;;;;;;3.00;1.00;;;6.30;99.90;;;;;;5074301;28;20226;-73
2022/02/21 03:23:03;;;;;;;4.17;1.40;;;6.30;99.90;;;;;;5076619;28;20202;-73
2022/02/21 03:25:28;;;;;;;3.47;1.40;;;6.40;99.90;;;;;;5076494;28;20182;-74
2022/02/21 03:27:54;;;;;;;2.70;1.30;;;6.30;99.90;;;;;;5058963;28;20179;-73
2022/02/21 03:30:19;;;;;;;3.67;1.83;;;6.30;99.90;;;;;;5075857;28;20233;-73
2022/02/21 03:32:45;;;;;;;6.30;1.40;;;6.20;99.90;;;;;;5079975;28;20186;-73
2022/02/21 03:35:13;;;;;;;3.77;1.50;;;6.10;99.90;;;;;;5077716;28;20201;-72
2022/02/21 03:37:38;;;;;;;2.37;1.40;;;6.10;99.90;;;;;;5076248;28;20194;-72
2022/02/21 03:40:05;;;;;;;1.40;1.10;;;6.20;99.90;;;;;;5080833;28;20514;-73
2022/02/21 03:42:32;;;;;;;2.80;1.80;;;6.20;99.90;;;;;;5077279;28;20182;-71
2022/02/21 03:45:01;;;;;;;6.50;1.60;;;6.20;99.90;;;;;;5077979;28;20424;-71
2022/02/21 03:47:27;;;;;;;1.57;1.07;;;6.40;99.90;;;;;;5062437;28;20970;-72
2022/02/21 03:49:55;;;;;;;3.30;1.20;;;6.40;99.90;;;;;;5079203;28;20491;-72
2022/02/21 03:52:20;;;;;;;6.03;2.13;;;6.50;99.90;;;;;;5067237;28;20186;-72
2022/02/21 03:54:46;;;;;;;2.43;1.53;;;6.70;99.90;;;;;;5077129;28;20781;-73
2022/02/21 03:57:11;;;;;;;6.87;1.30;;;6.70;99.90;;;;;;5073440;28;20187;-73
2022/02/21 03:59:37;;;;;;;3.50;1.93;;;6.80;99.90;;;;;;5078315;28;20278;-73
2022/02/21 04:02:03;;;;;;;4.27;1.50;;;6.80;99.90;;;;;;5073852;28;21984;-73
2022/02/21 04:04:28;;;;;;;3.10;1.57;;;6.90;99.90;;;;;;5074718;28;20202;-73
2022/02/21 04:06:54;;;;;;;4.37;2.50;;;6.90;99.90;;;;;;5075766;28;20574;-73
2022/02/21 04:09:20;;;;;;;3.30;1.77;;;6.90;99.90;;;;;;5062831;28;20202;-73
2022/02/21 04:11:45;;;;;;;2.00;1.40;;;6.90;99.90;;;;;;5075303;28;20194;-72
2022/02/21 04:14:11;;;;;;;3.73;1.50;;;6.90;99.90;;;;;;5077576;28;20920;-73
2022/02/21 04:16:36;;;;;;;4.20;1.40;;;6.90;99.90;;;;;;5075774;28;20224;-73
2022/02/21 04:19:03;;;;;;;4.53;1.50;;;6.80;99.90;;;;;;5074689;28;20193;-72
2022/02/21 04:21:29;;;;;;;4.17;1.30;;;6.70;99.90;;;;;;5075595;28;20183;-73
2022/02/21 04:23:55;;;;;;;3.37;2.30;;;6.90;99.90;;;;;;5079783;28;20479;-73
2022/02/21 04:26:21;;;;;;;3.33;1.57;;;6.80;99.90;;;;;;5076438;28;20432;-72
2022/02/21 04:28:46;;;;;;;4.90;1.83;;;6.70;99.90;;;;;;5075964;28;20930;-71
2022/02/21 04:31:14;;;;;;;4.80;1.50;;;6.60;99.90;;;;;;5076776;28;20214;-72
2022/02/21 04:33:40;;;;;;;5.00;1.63;;;6.70;99.90;;;;;;5075295;28;20199;-72
2022/02/21 04:36:06;;;;;;;7.50;2.00;;;6.60;99.90;;;;;;5063775;28;20444;-72
2022/02/21 04:38:32;;;;;;;3.53;1.60;;;6.70;99.90;;;;;;5075700;28;20190;-73
2022/02/21 04:40:57;;;;;;;7.07;2.53;;;6.70;99.90;;;;;;5078333;28;20460;-73
2022/02/21 04:43:23;;;;;;;3.87;1.70;;;6.70;99.90;;;;;;5075724;28;20210;-73
2022/02/21 04:45:54;;;;;;;2.87;1.57;;;6.70;99.90;;;;;;5076232;28;20698;-72
2022/02/21 04:48:21;;;;;;;5.90;2.60;;;6.60;99.90;;;;;;5076162;28;20578;-72
2022/02/21 04:50:46;;;;;;;2.50;1.50;;;6.60;99.90;;;;;;5073599;28;20533;-72
2022/02/21 04:53:12;;;;;;;6.20;2.50;;;6.60;99.90;;;;;;5077820;28;21344;-73
2022/02/21 04:55:38;;;;;;;6.27;1.77;;;6.60;99.90;;;;;;5075113;28;20201;-72
2022/02/21 04:58:04;;;;;;;11.00;2.03;;;6.60;99.90;;;;;;5074986;28;20465;-73
2022/02/21 05:00:30;;;;;;;6.80;1.90;;;6.60;99.90;;;;;;5080330;28;20225;-72
2022/02/21 05:02:55;;;;;;;8.83;2.07;;;6.60;99.90;;;;;;5079204;28;20255;-72
2022/02/21 05:05:21;;;;;;;4.73;1.60;;;6.60;99.90;;;;;;5078392;28;21186;-73
2022/02/21 05:07:47;;;;;;;5.63;1.97;;;6.60;99.90;;;;;;5062277;28;20175;-73
2022/02/21 05:10:13;;;;;;;10.43;2.10;;;6.70;99.90;;;;;;5078866;28;20471;-72
2022/02/21 05:12:38;;;;;;;3.70;1.67;;;6.70;99.90;;;;;;5077910;28;20266;-72
2022/02/21 05:15:05;;;;;;;5.67;1.63;;;6.70;99.90;;;;;;5077031;28;20641;-74
2022/02/21 05:17:31;;;;;;;5.03;1.80;;;6.80;99.90;;;;;;5079726;28;20436;-74
2022/02/21 05:19:57;;;;;;;6.40;2.57;;;6.80;99.90;;;;;;5078144;28;20480;-74
2022/02/21 05:22:23;;;;;;;8.53;2.50;;;6.90;99.90;;;;;;5080916;28;20192;-73
2022/02/21 05:24:50;;;;;;;5.10;1.90;;;7.00;99.90;;;;;;5077386;28;20245;-73
2022/02/21 05:27:16;;;;;;;8.43;2.23;;;7.00;99.90;;;;;;5080355;28;20523;-73
2022/02/21 05:29:42;;;;;;;7.67;2.40;;;7.10;99.90;;;;;;5079658;28;21227;-74
2022/02/21 05:32:10;;;;;;;6.03;2.20;;;7.10;99.90;;;;;;5064919;28;20443;-73
2022/02/21 05:34:38;;;;;;;13.83;3.20;;;7.10;99.90;;;;;;5079944;28;20214;-73
2022/02/21 05:37:05;;;;;;;5.83;2.40;;;7.10;99.90;;;;;;5077831;28;20524;-73
2022/02/21 05:39:31;;;;;;;12.90;2.70;;;7.20;99.90;;;;;;5065015;28;20480;-73
2022/02/21 05:41:57;;;;;;;15.57;3.33;;;7.20;99.90;;;;;;5079836;28;20921;-73
2022/02/21 05:44:22;;;;;;;8.03;2.43;;;7.10;99.90;;;;;;5079284;28;20471;-71
2022/02/21 05:46:48;;;;;;;9.90;2.60;;;7.10;99.90;;;;;;5081241;28;20712;-71
2022/02/21 05:49:14;;;;;;;8.80;2.77;;;7.20;99.90;;;;;;5080341;28;20206;-72
2022/02/21 05:51:40;;;;;;;7.53;2.27;;;7.20;99.90;;;;;;5079795;28;20250;-71
2022/02/21 05:54:06;;;;;;;6.73;2.03;;;7.20;99.90;;;;;;5081068;28;20427;-72
2022/02/21 05:56:32;;;;;;;7.83;2.93;;;7.20;99.90;;;;;;5076562;28;20955;-72
2022/02/21 05:58:59;;;;;;;5.47;1.90;;;7.10;99.90;;;;;;5078992;28;21008;-72
2022/02/21 06:01:24;;;;;;;8.13;2.73;;;7.10;99.90;;;;;;5079079;28;20563;-71
2022/02/21 06:03:50;;;;;;;7.63;2.97;;;7.00;99.90;;;;;;5079114;28;20210;-72
2022/02/21 06:06:16;;;;;;;9.03;2.07;;;7.00;99.90;;;;;;5059771;28;20585;-72
2022/02/21 06:08:41;;;;;;;7.40;2.10;;;7.00;99.90;;;;;;5074601;28;20198;-72
2022/02/21 06:11:07;;;;;;;6.53;2.37;;;7.00;99.90;;;;;;5078606;28;20297;-72
2022/02/21 06:13:33;;;;;;;6.00;2.10;;;6.90;99.90;;;;;;5076882;28;20198;-71
2022/02/21 06:16:00;;;;;;;10.40;2.73;;;6.90;99.90;;;;;;5074405;28;20245;-71
2022/02/21 06:18:26;;;;;;;7.07;2.67;;;6.90;99.90;;;;;;5078931;28;20481;-72
2022/02/21 06:20:51;;;;;;;7.70;4.17;;;6.90;99.90;;;;;;5073215;28;20998;-73
2022/02/21 06:23:17;;;;;;;6.30;3.13;;;6.90;99.90;;;;;;5074412;28;20468;-71
2022/02/21 06:25:43;;;;;;;11.90;2.70;;;6.90;99.90;;;;;;5071682;28;20612;-72
2022/02/21 06:28:09;;;;;;;9.23;2.03;;;6.90;99.90;;;;;;5075661;28;22365;-73
2022/02/21 06:30:36;;;;;;;12.80;2.10;;;6.80;99.90;;;;;;5076797;28;20228;-72
2022/02/21 06:33:01;;;;;;;9.73;2.00;;;6.80;99.90;;;;;;5078701;28;20420;-71
2022/02/21 06:35:27;;;;;;;7.47;2.43;;;6.70;99.90;;;;;;5079800;28;20447;-71
2022/02/21 06:37:54;;;;;;;9.83;2.57;;;6.70;99.90;;;;;;5066680;28;20191;-72
2022/02/21 06:40:21;;;;;;;8.90;2.30;;;6.70;99.90;;;;;;5077159;28;20206;-72
2022/02/21 06:42:48;;;;;;;10.07;3.00;;;6.70;99.90;;;;;;5078549;28;20682;-70
2022/02/21 06:45:14;;;;;;;11.47;2.40;;;6.70;99.90;;;;;;5074133;28;20471;-68
2022/02/21 06:47:40;;;;;;;17.33;3.37;;;6.60;99.90;;;;;;5078375;28;20434;-70
2022/02/21 06:50:06;;;;;;;13.33;3.43;;;6.60;99.90;;;;;;5077653;28;20954;-71
2022/02/21 06:52:32;;;;;;;12.63;2.43;;;6.60;99.90;;;;;;5073924;28;20577;-72
2022/02/21 06:54:58;;;;;;;9.00;2.60;;;6.50;99.90;;;;;;5079139;28;20439;-70
2022/02/21 06:57:24;;;;;;;6.33;2.23;;;6.50;99.90;;;;;;5075720;28;20270;-70
2022/02/21 06:59:50;;;;;;;13.13;2.83;;;6.50;99.90;;;;;;5061773;28;20452;-70
2022/02/21 07:02:16;;;;;;;14.37;3.03;;;6.50;99.90;;;;;;5076174;28;21011;-73
2022/02/21 07:04:42;;;;;;;8.43;2.47;;;6.50;99.90;;;;;;5049987;28;20215;-75
2022/02/21 07:07:07;;;;;;;9.83;3.10;;;6.50;99.90;;;;;;5073881;28;20206;-72
2022/02/21 07:09:33;;;;;;;8.33;2.30;;;6.50;99.90;;;;;;5076728;28;21115;-75
2022/02/21 07:11:59;;;;;;;8.53;3.50;;;6.50;99.90;;;;;;5074842;28;20199;-75
2022/02/21 07:14:24;;;;;;;7.93;2.60;;;6.50;99.90;;;;;;5073727;28;20535;-72
2022/02/21 07:16:50;;;;;;;10.00;2.97;;;6.50;99.90;;;;;;5056037;28;20195;-73
2022/02/21 07:19:16;;;;;;;8.20;3.20;;;6.50;99.90;;;;;;5075462;28;20214;-74
2022/02/21 07:21:42;;;;;;;7.90;2.63;;;6.50;99.90;;;;;;5072233;28;20449;-74
2022/02/21 07:24:09;;;;;;;6.57;2.97;;;6.50;99.90;;;;;;5074513;28;20456;-73
2022/02/21 07:26:35;;;;;;;10.93;3.10;;;6.50;99.90;;;;;;5074776;28;20213;-73
2022/02/21 07:29:01;;;;;;;8.37;2.90;;;6.50;99.90;;;;;;5074957;28;20440;-73
2022/02/21 07:31:27;;;;;;;6.93;3.23;;;6.50;99.90;;;;;;5075468;28;20440;-72
2022/02/21 07:33:52;;;;;;;5.03;2.27;;;6.60;99.90;;;;;;5075528;28;20729;-71
2022/02/21 07:36:18;;;;;;;13.43;3.90;;;6.60;99.90;;;;;;5074353;28;20194;-74
2022/02/21 07:38:44;;;;;;;13.20;4.87;;;6.50;99.90;;;;;;5074838;28;20256;-73
2022/02/21 07:41:10;;;;;;;9.20;3.37;;;6.60;99.90;;;;;;5076163;28;20290;-71
2022/02/21 07:43:35;;;;;;;7.60;3.20;;;6.60;99.90;;;;;;5074614;28;20206;-73
2022/02/21 07:46:01;;;;;;;14.00;3.67;;;6.50;99.90;;;;;;5073965;28;20456;-73
2022/02/21 07:48:26;;;;;;;7.73;2.73;;;6.50;99.90;;;;;;5074759;28;20190;-71
2022/02/21 07:50:54;;;;;;;8.50;2.53;;;6.50;99.90;;;;;;5057540;28;22436;-73
2022/02/21 07:53:20;;;;;;;14.43;4.40;;;6.50;99.90;;;;;;5075003;28;20524;-71
2022/02/21 07:55:47;;;;;;;9.37;3.20;;;6.60;99.90;;;;;;5056129;28;21016;-72
2022/02/21 07:58:13;;;;;;;9.10;3.27;;;6.60;99.90;;;;;;5073794;28;20445;-71
2022/02/21 08:00:38;;;;;;;6.53;2.43;;;6.60;99.90;;;;;;5073643;28;20456;-70
2022/02/21 08:03:04;;;;;;;7.27;2.27;;;6.60;99.90;;;;;;5079258;28;20475;-71
2022/02/21 08:05:30;;;;;;;8.40;3.47;;;6.60;99.90;;;;;;5077146;28;20556;-70
2022/02/21 08:07:55;;;;;;;6.60;2.93;;;6.60;99.90;;;;;;5074423;28;20201;-73
2022/02/21 08:10:21;;;;;;;5.07;2.40;;;6.70;99.90;;;;;;5073634;28;20226;-73
2022/02/21 08:12:47;;;;;;;11.13;2.60;;;6.70;99.90;;;;;;5074587;28;20186;-74
2022/02/21 08:15:13;;;;;;;3.90;2.10;;;6.80;99.90;;;;;;5059344;28;20724;-74
2022/02/21 08:17:40;;;;;;;7.17;2.80;;;6.80;99.90;;;;;;5074206;28;20217;-71
2022/02/21 08:20:06;;;;;;;21.50;3.60;;;6.80;99.90;;;;;;5074830;28;20473;-70
2022/02/21 08:22:32;;;;;;;6.27;2.63;;;6.80;99.90;;;;;;5069202;28;20447;-71
2022/02/21 08:24:57;;;;;;;8.97;3.23;;;6.80;99.90;;;;;;5070616;28;20432;-69
2022/02/21 08:27:23;;;;;;;5.83;2.33;;;6.80;99.90;;;;;;5073618;28;20282;-71
2022/02/21 08:29:48;;;;;;;24.83;3.83;;;6.80;99.90;;;;;;5073591;28;20218;-69
2022/02/21 08:32:14;;;;;;;10.13;2.80;;;6.80;99.90;;;;;;5075051;28;20188;-74
2022/02/21 08:34:41;;;;;;;14.27;2.40;;;6.80;99.90;;;;;;5074955;28;20194;-72
2022/02/21 08:37:07;;;;;;;6.87;2.80;;;6.80;99.90;;;;;;5077345;28;20194;-72
2022/02/21 08:39:33;;;;;;;8.57;2.97;;;6.80;99.90;;;;;;5076772;28;20491;-73
2022/02/21 08:41:59;;;;;;;8.30;2.27;;;6.90;99.90;;;;;;5079114;28;20511;-74
2022/02/21 08:44:25;;;;;;;14.40;3.53;;;7.00;99.90;;;;;;5074905;28;20560;-74
2022/02/21 08:46:51;;;;;;;9.53;3.37;;;7.00;99.90;;;;;;5061683;28;20567;-72
2022/02/21 08:49:17;;;;;;;10.60;3.30;;;7.00;99.90;;;;;;5077867;28;20586;-75
2022/02/21 08:51:42;;;;;;;12.10;3.20;;;7.00;99.90;;;;;;5073288;28;20469;-75
2022/02/21 08:54:11;;;;;;;3.73;1.40;;;7.00;99.90;;;;;;5069754;28;20191;-75
2022/02/21 08:56:37;;;;;;;5.93;2.27;;;7.00;99.90;;;;;;5075385;28;20199;-74
2022/02/21 08:59:03;;;;;;;12.17;2.80;;;7.00;99.90;;;;;;5077703;28;20443;-75
2022/02/21 09:01:29;;;;;;;3.97;2.23;;;7.00;99.90;;;;;;5075870;28;20600;-76
2022/02/21 09:03:54;;;;;;;3.27;1.80;;;6.90;99.90;;;;;;5077168;28;20466;-75
2022/02/21 09:06:20;;;;;;;6.53;2.93;;;6.90;99.90;;;;;;5077395;28;20206;-76
2022/02/21 09:08:46;;;;;;;3.23;1.80;;;6.90;99.90;;;;;;5081125;28;20208;-75
2022/02/21 09:11:12;;;;;;;2.67;1.97;;;6.80;99.90;;;;;;5077064;28;20225;-76
2022/02/21 09:13:38;;;;;;;3.20;1.83;;;6.80;99.90;;;;;;5076144;28;20183;-76
2022/02/21 09:16:05;;;;;;;2.40;1.10;;;6.70;99.90;;;;;;5077342;28;20441;-76
2022/02/21 09:18:31;;;;;;;2.70;1.57;;;6.50;99.90;;;;;;5075554;28;21234;-77
2022/02/21 09:20:59;;;;;;;2.17;1.60;;;6.30;99.90;;;;;;5074751;28;20462;-76
2022/02/21 09:23:24;;;;;;;2.00;1.50;;;6.40;99.90;;;;;;5074548;28;20325;-76
2022/02/21 09:25:50;;;;;;;8.03;2.30;;;6.40;99.90;;;;;;5072883;28;21099;-73
2022/02/21 09:28:15;;;;;;;2.80;2.00;;;6.50;99.90;;;;;;5073409;28;20187;-73
2022/02/21 09:30:41;;;;;;;7.60;1.90;;;6.60;99.90;;;;;;5075474;28;20210;-74
2022/02/21 09:33:07;;;;;;;3.20;1.57;;;6.60;99.90;;;;;;5077686;28;20186;-74
2022/02/21 09:35:32;;;;;;;4.80;2.63;;;6.70;99.90;;;;;;5075758;28;20499;-73
2022/02/21 09:37:58;;;;;;;7.27;2.20;;;6.60;99.90;;;;;;5076717;28;20190;-72
2022/02/21 09:40:24;;;;;;;7.17;2.00;;;6.70;99.90;;;;;;5077544;28;20233;-75
2022/02/21 09:42:50;;;;;;;7.20;2.00;;;6.70;99.90;;;;;;5078198;28;20247;-78
2022/02/21 09:45:19;;;;;;;9.73;3.47;;;6.60;99.90;;;;;;5079348;28;20436;-76
2022/02/21 09:47:45;;;;;;;13.03;2.67;;;6.70;99.90;;;;;;5077684;28;20426;-77
2022/02/21 09:50:12;;;;;;;9.40;2.37;;;6.60;99.90;;;;;;5077495;28;20457;-79
2022/02/21 09:52:38;;;;;;;5.97;3.67;;;6.70;99.90;;;;;;5076059;28;20445;-76
2022/02/21 09:55:05;;;;;;;11.47;3.07;;;6.60;99.90;;;;;;5078117;28;20429;-75
2022/02/21 09:57:30;;;;;;;5.10;2.27;;;6.50;99.90;;;;;;5073240;28;20429;-75
2022/02/21 09:59:56;;;;;;;11.00;2.70;;;6.50;99.90;;;;;;5075426;28;20459;-73
2022/02/21 10:02:26;;;;;;;6.97;2.10;;;6.50;99.90;;;;;;5076558;28;20183;-72
2022/02/21 10:05:14;;;;;;;9.40;2.20;;;6.50;99.90;;;;;;5080073;28;20293;-73
2022/02/21 10:07:41;;;;;;;12.43;2.90;;;6.40;99.90;;;;;;5075431;28;20465;-81
2022/02/21 10:10:08;;;;;;;11.80;4.27;;;6.30;99.90;;;;;;5075126;28;20789;-74
2022/02/21 10:12:51;;;;;;;11.73;2.10;;;6.40;99.90;;;;;;5063818;28;20445;-84
2022/02/21 10:15:20;;;;;;;4.60;2.17;;;6.40;99.90;;;;;;5067196;28;20446;-74
2022/02/21 10:17:50;;;;;;;7.73;2.17;;;6.40;99.90;;;;;;5072377;28;20440;-76
2022/02/21 10:20:18;;;;;;;5.80;2.10;;;6.50;99.90;;;;;;5069816;28;20573;-75
2022/02/21 10:23:04;;;;;;;3.83;1.60;;;6.50;99.90;;;;;;5071138;28;20509;-76
2022/02/21 10:25:30;;;;;;;6.10;2.13;;;6.40;99.90;;;;;;5074946;28;20441;-82
2022/02/21 10:27:59;;;;;;;9.23;2.60;;;6.50;99.90;;;;;;5071441;28;20437;-75
2022/02/21 10:30:26;;;;;;;13.80;2.37;;;6.70;99.90;;;;;;5073314;28;20920;-73
2022/02/21 10:32:52;;;;;;;5.93;2.23;;;6.80;99.90;;;;;;5072923;28;20650;-75
2022/02/21 10:35:23;;;;;;;8.93;2.70;;;7.00;99.90;;;;;;5070463;28;20523;-75
2022/02/21 10:37:58;;;;;;;12.00;4.23;;;7.10;99.90;;;;;;5071018;28;20433;-75
2022/02/21 10:40:37;;;;;;;11.33;2.23;;;7.10;99.90;;;;;;5073039;28;20455;-76
2022/02/21 10:43:17;;;;;;;7.87;2.40;;;7.30;99.90;;;;;;5073903;28;20468;-75
2022/02/21 10:45:44;;;;;;;10.47;3.43;;;7.30;99.90;;;;;;5068632;28;20487;-77
2022/02/21 10:48:21;;;;;;;4.57;2.30;;;7.40;99.90;;;;;;5069749;28;20713;-76
2022/02/21 10:51:02;;;;;;;9.37;2.77;;;7.50;99.90;;;;;;5068603;28;20871;-76
2022/02/21 10:53:57;;;;;;;7.27;2.47;;;7.50;99.90;;;;;;5072704;28;21220;-73
2022/02/21 10:56:40;;;;;;;5.43;2.23;;;7.60;99.90;;;;;;5053380;28;20450;-74
2022/02/21 10:59:06;;;;;;;8.40;2.70;;;7.70;99.90;;;;;;5070363;28;20448;-79
2022/02/21 11:01:32;;;;;;;3.50;1.67;;;7.70;99.90;;;;;;5071231;28;20818;-75
2022/02/21 11:04:00;;;;;;;6.50;2.17;;;7.70;99.90;;;;;;5072840;28;20469;-74
2022/02/21 11:06:26;;;;;;;3.80;2.20;;;7.70;99.90;;;;;;5050562;28;20463;-71
2022/02/21 11:08:53;;;;;;;6.20;2.30;;;7.70;99.90;;;;;;5072113;28;20433;-74
2022/02/21 11:11:22;;;;;;;4.27;1.90;;;7.80;99.90;;;;;;5069498;28;20209;-74
2022/02/21 11:13:49;;;;;;;5.23;2.23;;;7.80;99.90;;;;;;5071629;28;20500;-73
2022/02/21 11:16:15;;;;;;;5.13;1.80;;;7.80;99.90;;;;;;5071972;28;20437;-75
2022/02/21 11:18:41;;;;;;;7.07;2.33;;;7.70;99.90;;;;;;5073690;28;20451;-73
2022/02/21 11:21:08;;;;;;;7.10;2.37;;;7.70;99.90;;;;;;5056568;28;20453;-70
2022/02/21 11:23:35;;;;;;;4.43;1.97;;;7.60;99.90;;;;;;5067953;28;20491;-72
2022/02/21 11:26:16;;;;;;;7.27;2.03;;;7.70;99.90;;;;;;5067230;28;20432;-76
2022/02/21 11:28:54;;;;;;;5.63;2.33;;;7.60;99.90;;;;;;5069645;28;20459;-77
2022/02/21 11:31:28;;;;;;;12.63;2.87;;;7.60;99.90;;;;;;5071954;28;20433;-72
2022/02/21 11:34:06;;;;;;;9.50;2.70;;;7.70;99.90;;;;;;5071674;28;20506;-77
2022/02/21 11:36:33;;;;;;;8.50;2.47;;;7.70;99.90;;;;;;5056656;28;20973;-81
2022/02/21 11:38:59;;;;;;;4.50;2.03;;;7.70;99.90;;;;;;5069213;28;20437;-75
2022/02/21 11:41:35;;;;;;;8.63;2.57;;;7.80;99.90;;;;;;5071679;28;20463;-74
2022/02/21 11:44:21;;;;;;;8.33;2.90;;;7.80;99.90;;;;;;5068261;28;21076;-74
2022/02/21 11:46:48;;;;;;;4.30;2.10;;;7.80;99.90;;;;;;5070025;28;20433;-73
2022/02/21 11:49:26;;;;;;;6.00;2.10;;;7.80;99.90;;;;;;5057573;28;20969;-74
2022/02/21 11:51:51;;;;;;;7.43;2.40;;;7.80;99.90;;;;;;5070458;28;20440;-71
2022/02/21 11:54:20;;;;;;;9.20;2.30;;;7.80;99.90;;;;;;5069017;28;20489;-70
2022/02/21 11:56:51;;;;;;;3.40;1.80;;;7.80;99.90;;;;;;5070609;28;20194;-70
2022/02/21 11:59:25;;;;;;;10.17;2.27;;;7.90;99.90;;;;;;5069144;28;20581;-70
2022/02/21 12:02:00;;;;;;;8.63;2.00;;;7.80;99.90;;;;;;5070601;28;20436;-70
2022/02/21 12:04:27;;;;;;;5.53;2.23;;;7.90;99.90;;;;;;5068130;28;20472;-70
2022/02/21 12:06:58;;;;;;;6.23;2.40;;;7.90;99.90;;;;;;5068043;28;20448;-71
2022/02/21 12:09:26;;;;;;;6.67;2.77;;;7.90;99.90;;;;;;5075317;28;20448;-71
2022/02/21 12:11:51;;;;;;;4.30;1.77;;;7.90;99.90;;;;;;5075869;28;20441;-70
2022/02/21 12:14:19;;;;;;;10.40;3.20;;;7.90;99.90;;;;;;5075638;28;20442;-70
2022/02/21 12:16:59;;;;;;;7.67;2.13;;;7.90;99.90;;;;;;5078476;28;20187;-70
2022/02/21 12:19:27;;;;;;;4.73;2.33;;;8.00;99.90;;;;;;5060392;28;21007;-71
2022/02/21 12:22:10;;;;;;;6.40;2.63;;;7.90;99.90;;;;;;5070009;28;20987;-71
2022/02/21 12:25:09;;;;;;;11.30;2.80;;;7.90;99.90;;;;;;5071384;28;20467;-71
2022/02/21 12:27:35;;;;;;;8.20;2.47;;;8.00;99.90;;;;;;5073340;28;20531;-71
2022/02/21 12:30:01;;;;;;;4.83;2.47;;;8.00;99.90;;;;;;5071114;28;20498;-71
2022/02/21 12:32:27;;;;;;;7.30;2.47;;;8.00;99.90;;;;;;5075105;28;20528;-71
2022/02/21 12:34:53;;;;;;;10.20;2.10;;;8.10;99.90;;;;;;5072717;28;20205;-71
2022/02/21 12:37:19;;;;;;;8.37;2.80;;;8.10;99.90;;;;;;5057012;28;20198;-74
2022/02/21 12:39:48;;;;;;;3.70;2.30;;;8.10;99.90;;;;;;5072089;28;20928;-73
2022/02/21 12:42:16;;;;;;;5.93;1.60;;;8.20;99.90;;;;;;5077270;28;20435;-75
2022/02/21 12:44:42;;;;;;;3.87;2.07;;;8.20;99.90;;;;;;5076135;28;20476;-76
2022/02/21 12:47:08;;;;;;;4.93;2.20;;;8.20;99.90;;;;;;5080510;28;20489;-76
2022/02/21 12:49:42;;;;;;;5.00;2.27;;;8.20;99.90;;;;;;5079567;28;20627;-76
2022/02/21 12:52:11;;;;;;;4.90;2.10;;;8.10;99.90;;;;;;5082253;28;20413;-74